createdAt,value
2023-02-11T00:00:23.013Z,46.88
2023-02-11T00:05:46.360Z,46.53
2023-02-11T00:10:53.114Z,46.10
2023-02-11T00:15:58.180Z,44.85
2023-02-11T00:21:01.591Z,45.35
2023-02-11T00:26:05.769Z,44.45
2023-02-11T00:31:10.582Z,44.22
2023-02-11T00:36:17.415Z,48.38
2023-02-11T00:41:21.584Z,45.20
2023-02-11T00:46:26.506Z,44.78
2023-02-11T00:51:30.117Z,44.40
2023-02-11T00:56:33.608Z,47.10
2023-02-11T01:01:38.382Z,47.20
2023-02-11T01:06:41.856Z,48.40
2023-02-11T01:11:45.279Z,45.42
2023-02-11T01:16:50.024Z,44.72
2023-02-11T01:21:53.444Z,46.75
2023-02-11T01:26:56.862Z,47.67
2023-02-11T01:32:02.070Z,44.80
2023-02-11T01:37:05.936Z,52.53
2023-02-11T01:42:12.933Z,48.25
2023-02-11T01:47:17.865Z,47.47
2023-02-11T01:52:26.425Z,48.95
2023-02-11T01:57:33.232Z,51.33
2023-02-11T02:02:45.256Z,52.75
2023-02-11T02:07:57.317Z,43.08
2023-02-11T02:13:00.709Z,47.00
2023-02-11T02:18:30.543Z,50.28
2023-02-11T02:23:53.544Z,44.75
2023-02-11T02:29:28.202Z,44.97
2023-02-11T02:34:43.148Z,39.70
2023-02-11T02:39:48.021Z,44.45
2023-02-11T02:44:54.144Z,42.97
2023-02-11T02:49:59.069Z,41.45
2023-02-11T02:55:26.484Z,41.22
2023-02-11T03:00:36.544Z,41.13
2023-02-11T03:05:50.180Z,39.53
2023-02-11T03:10:55.376Z,37.97
2023-02-11T03:16:01.858Z,36.17
2023-02-11T03:21:09.280Z,39.38
2023-02-11T03:26:19.667Z,40.33
2023-02-11T03:31:30.529Z,40.03
2023-02-11T03:36:46.063Z,36.85
2023-02-11T03:41:53.610Z,38.78
2023-02-11T03:46:57.492Z,35.53
2023-02-11T03:52:05.700Z,38.63
2023-02-11T03:57:09.536Z,35.97
2023-02-11T04:02:13.206Z,31.38
2023-02-11T04:07:18.271Z,31.48
2023-02-11T04:12:22.121Z,33.08
2023-02-11T04:17:25.662Z,34.30
2023-02-11T04:22:31.021Z,32.03
2023-02-11T04:27:34.821Z,36.28
2023-02-11T04:32:38.167Z,36.42
2023-02-11T04:37:43.173Z,35.90
2023-02-11T04:42:46.895Z,34.40
2023-02-11T04:47:50.325Z,37.20
2023-02-11T04:52:55.546Z,38.28
2023-02-11T04:57:59.173Z,37.25
2023-02-11T05:03:02.594Z,32.92
2023-02-11T05:08:07.522Z,37.20
2023-02-11T05:13:10.920Z,35.30
2023-02-11T05:18:14.900Z,37.78
2023-02-11T05:23:19.656Z,40.10
2023-02-11T05:28:23.140Z,35.95
2023-02-11T05:33:26.789Z,36.58
2023-02-11T05:38:31.953Z,39.10
2023-02-11T05:43:36.584Z,39.50
2023-02-11T05:48:40.022Z,36.28
2023-02-11T05:53:44.748Z,39.50
2023-02-11T05:58:48.122Z,38.72
2023-02-11T06:03:51.588Z,33.05
2023-02-11T06:08:56.492Z,36.90
2023-02-11T06:13:59.890Z,40.63
2023-02-11T06:19:03.266Z,31.75
2023-02-11T06:24:09.085Z,32.97
2023-02-11T06:29:12.976Z,39.78
2023-02-11T06:34:16.446Z,34.85
2023-02-11T06:39:21.167Z,35.22
2023-02-11T06:44:24.940Z,33.45
2023-02-11T06:49:28.706Z,34.72
2023-02-11T06:54:33.474Z,30.45
2023-02-11T06:59:36.883Z,34.10
2023-02-11T07:04:40.272Z,33.78
2023-02-11T07:09:45.105Z,30.80
2023-02-11T07:14:48.479Z,32.20
2023-02-11T07:19:51.873Z,31.08
2023-02-11T07:24:56.692Z,30.00
2023-02-11T07:30:00.101Z,32.20
2023-02-11T07:35:04.022Z,30.00
2023-02-11T07:40:11.024Z,31.85
2023-02-11T07:45:15.399Z,34.08
2023-02-11T07:50:18.910Z,34.42
2023-02-11T07:55:23.645Z,30.85
2023-02-11T08:00:27.057Z,35.55
2023-02-11T08:05:30.560Z,30.75
2023-02-11T08:10:35.267Z,34.05
2023-02-11T08:15:38.632Z,36.72
2023-02-11T08:20:42.075Z,31.92
2023-02-11T08:25:46.842Z,30.65
2023-02-11T08:30:50.507Z,31.70
2023-02-11T08:35:54.082Z,31.25
2023-02-11T08:41:01.205Z,32.45
2023-02-11T08:46:05.791Z,33.70
2023-02-11T08:51:10.637Z,33.25
2023-02-11T08:56:16.476Z,35.70
2023-02-11T09:01:23.297Z,33.20
2023-02-11T09:06:27.944Z,30.58
2023-02-11T09:11:34.859Z,32.38
2023-02-11T09:16:38.266Z,36.08
2023-02-11T09:21:41.779Z,33.22
2023-02-11T09:26:46.550Z,34.38
2023-02-11T09:31:50.459Z,32.67
2023-02-11T09:36:54.199Z,31.52
2023-02-11T09:42:42.605Z,36.30
2023-02-11T09:47:55.308Z,32.50
2023-02-11T09:53:02.648Z,34.13
2023-02-11T09:58:12.964Z,29.88
2023-02-11T10:03:44.285Z,30.92
2023-02-11T10:08:58.296Z,27.70
2023-02-11T10:14:12.091Z,31.85
2023-02-11T10:19:33.962Z,27.30
2023-02-11T10:24:38.416Z,27.55
2023-02-11T10:29:45.341Z,22.80
2023-02-11T10:34:50.271Z,24.95
2023-02-11T10:39:53.761Z,26.08
2023-02-11T10:45:01.578Z,35.85
2023-02-11T10:50:20.478Z,29.48
2023-02-11T10:55:28.742Z,31.77
2023-02-11T11:00:40.551Z,26.70
2023-02-11T11:05:50.564Z,28.38
2023-02-11T11:11:08.332Z,25.58
2023-02-11T11:16:19.950Z,28.17
2023-02-11T11:21:26.962Z,30.77
2023-02-11T11:26:41.016Z,29.17
2023-02-11T11:31:51.209Z,34.72
2023-02-11T11:37:01.723Z,35.83
2023-02-11T11:42:07.341Z,28.98
2023-02-11T11:47:28.404Z,30.98
2023-02-11T11:52:41.114Z,36.50
2023-02-11T11:57:44.751Z,30.90
2023-02-11T12:03:24.500Z,32.30
2023-02-11T12:08:40.597Z,35.55
2023-02-11T12:14:01.698Z,30.38
2023-02-11T12:19:45.706Z,31.75
2023-02-11T12:25:18.687Z,30.10
2023-02-11T12:30:35.310Z,30.90
2023-02-11T12:35:51.795Z,33.40
2023-02-11T12:41:11.273Z,31.38
2023-02-11T12:46:35.292Z,30.73
2023-02-11T12:52:04.299Z,31.20
2023-02-11T12:57:16.598Z,28.45
2023-02-11T13:02:28.260Z,32.92
2023-02-11T13:07:37.912Z,29.40
2023-02-11T13:13:03.584Z,32.17
2023-02-11T13:18:21.238Z,31.25
2023-02-11T13:23:31.688Z,31.95
2023-02-11T13:28:46.439Z,29.83
2023-02-11T13:33:50.585Z,33.83
2023-02-11T13:39:00.936Z,32.25
2023-02-11T13:44:23.290Z,27.02
2023-02-11T13:49:31.685Z,30.88
2023-02-11T13:54:38.890Z,29.65
2023-02-11T13:59:49.513Z,30.67
2023-02-11T14:05:42.809Z,30.70
2023-02-11T14:10:51.616Z,28.48
2023-02-11T14:16:08.416Z,29.77
2023-02-11T14:21:14.281Z,26.20
2023-02-11T14:26:35.115Z,29.60
2023-02-11T14:31:45.249Z,27.90
2023-02-11T14:37:04.990Z,32.10
2023-02-11T14:42:19.950Z,31.42
2023-02-11T14:47:31.346Z,30.05
2023-02-11T14:52:38.812Z,30.60
2023-02-11T14:57:44.492Z,27.70
2023-02-11T15:02:50.075Z,26.77
2023-02-11T15:07:55.953Z,22.95
2023-02-11T15:13:00.614Z,28.20
2023-02-11T15:18:06.606Z,27.40
2023-02-11T15:23:19.991Z,29.92
2023-02-11T15:28:26.890Z,26.83
2023-02-11T15:33:32.841Z,26.52
2023-02-11T15:38:36.204Z,26.42
2023-02-11T15:43:44.614Z,26.85
2023-02-11T15:48:51.661Z,27.95
2023-02-11T15:53:58.561Z,31.05
2023-02-11T15:59:12.986Z,27.92
2023-02-11T16:04:21.105Z,26.70
2023-02-11T16:09:34.021Z,23.73
2023-02-11T16:14:39.272Z,28.95
2023-02-11T16:19:47.748Z,29.85
2023-02-11T16:24:54.117Z,29.90
2023-02-11T16:29:58.737Z,26.80
2023-02-11T16:35:05.901Z,25.50
2023-02-11T16:40:12.578Z,23.75
2023-02-11T16:45:16.347Z,23.30
2023-02-11T16:50:25.891Z,24.83
2023-02-11T16:55:29.897Z,23.55
2023-02-11T17:00:33.601Z,27.13
2023-02-11T17:05:54.268Z,25.55
2023-02-11T17:10:58.588Z,26.13
2023-02-11T17:16:02.131Z,23.83
2023-02-11T17:21:09.134Z,21.75
2023-02-11T17:26:12.657Z,24.08
2023-02-11T17:31:16.128Z,25.40
2023-02-11T17:36:21.026Z,23.40
2023-02-11T17:41:24.774Z,22.60
2023-02-11T17:46:29.275Z,21.75
2023-02-11T17:51:36.059Z,22.48
2023-02-11T17:56:40.065Z,19.33
2023-02-11T18:01:44.521Z,20.58
2023-02-11T18:06:50.630Z,21.98
2023-02-11T18:11:54.198Z,20.63
2023-02-11T18:16:57.676Z,21.75
2023-02-11T18:22:04.318Z,20.00
2023-02-11T18:27:07.930Z,24.17
2023-02-11T18:32:11.488Z,21.20
2023-02-11T18:37:16.383Z,19.33
2023-02-11T18:42:19.789Z,27.88
2023-02-11T18:47:23.473Z,22.70
2023-02-11T18:52:28.499Z,22.10
2023-02-11T18:57:31.978Z,24.80
2023-02-11T19:02:35.464Z,24.75
2023-02-11T19:07:40.724Z,21.20
2023-02-11T19:12:44.100Z,22.15
2023-02-11T19:17:47.473Z,23.35
2023-02-11T19:22:52.276Z,18.65
2023-02-11T19:27:55.694Z,19.95
2023-02-11T19:32:59.058Z,24.15
2023-02-11T19:38:04.275Z,24.27
2023-02-11T19:43:07.673Z,26.50
2023-02-11T19:48:13.706Z,23.17
2023-02-11T19:53:18.429Z,25.92
2023-02-11T19:58:21.820Z,24.17
2023-02-11T20:03:25.273Z,23.52
2023-02-11T20:08:30.354Z,21.15
2023-02-11T20:13:34.895Z,20.95
2023-02-11T20:18:38.242Z,20.13
2023-02-11T20:23:44.881Z,22.70
2023-02-11T20:28:49.856Z,17.85
2023-02-11T20:33:53.325Z,21.80
2023-02-11T20:38:58.051Z,21.50
2023-02-11T20:44:03.688Z,27.48
2023-02-11T20:49:08.699Z,25.92
2023-02-11T20:54:16.245Z,26.17
2023-02-11T20:59:20.991Z,26.80
2023-02-11T21:04:26.214Z,26.75
2023-02-11T21:09:33.609Z,33.90
2023-02-11T21:14:36.990Z,31.55
2023-02-11T21:19:41.395Z,32.67
2023-02-11T21:24:46.160Z,34.47
2023-02-11T21:29:54.622Z,30.15
2023-02-11T21:35:00.553Z,28.23
2023-02-11T21:40:07.802Z,30.52
2023-02-11T21:45:11.330Z,28.73
2023-02-11T21:50:14.687Z,26.40
2023-02-11T21:55:19.855Z,29.30
2023-02-11T22:00:23.876Z,29.55
2023-02-11T22:05:27.353Z,31.63
2023-02-11T22:10:32.507Z,25.63
2023-02-11T22:15:35.944Z,31.27
2023-02-11T22:20:39.524Z,30.25
2023-02-11T22:25:44.240Z,30.58
2023-02-11T22:30:47.663Z,32.85
2023-02-11T22:35:58.394Z,31.15
2023-02-11T22:41:07.858Z,31.20
2023-02-11T22:46:14.532Z,33.22
2023-02-11T22:51:20.505Z,29.58
2023-02-11T22:56:26.380Z,33.80
2023-02-11T23:01:31.405Z,31.55
2023-02-11T23:06:35.380Z,27.58
2023-02-11T23:11:41.059Z,28.85
2023-02-11T23:16:44.835Z,30.02
2023-02-11T23:21:52.470Z,25.98
2023-02-11T23:26:57.226Z,25.52
2023-02-11T23:32:00.712Z,27.30
2023-02-11T23:37:04.315Z,27.02
2023-02-11T23:42:09.144Z,31.63
2023-02-11T23:47:12.517Z,30.48
2023-02-11T23:52:16.240Z,26.73
2023-02-11T23:57:21.014Z,33.08
